Holly Grove, Mississippi
Current Conditions -  °F | °C
As of 2:53 AM on Sunday 26 Oct 2014 (Local Time) from KGWO Reporting Station
Moderate Fog Moderate Fog  
Wind Chill: 58°   Ceiling: Unl
Heat Index: 58°   Visibility: 0.5mi
Dew Point: 56°   Wind: 0mph
Humidity: 93%   Direction: NA
Pressure: 30.03"   Gusts: NA
Location:  33.3926°N, 90.1584°W
Report Text: KGWO 260753Z AUTO 00000KT 1/2SM FG CLR 14/13 A3003 RMK AO2 SLP169 T01440133 TSNO
Loading
Personal Weather Stations






























Interactive Weather Map
Tropical Storm Tracking
New forecast layout! Learn more

10-Day Weather Forecast

Advertisements
Track Severe Weather on mobile